createdAt,value
2018-02-22T00:01:17.244Z,22.57
2018-02-22T00:03:44.843Z,21.87
2018-02-22T00:06:12.478Z,24.27
2018-02-22T00:08:40.060Z,24.70
2018-02-22T00:11:07.685Z,23.90
2018-02-22T00:13:35.275Z,24.50
2018-02-22T00:16:02.900Z,22.93
2018-02-22T00:18:30.493Z,24.00
2018-02-22T00:20:58.115Z,23.83
2018-02-22T00:23:25.708Z,23.53
2018-02-22T00:25:53.343Z,25.03
2018-02-22T00:28:20.932Z,24.77
2018-02-22T00:30:48.522Z,24.97
2018-02-22T00:33:16.157Z,24.63
2018-02-22T00:35:43.782Z,25.13
2018-02-22T00:38:11.414Z,23.10
2018-02-22T00:40:39.006Z,24.57
2018-02-22T00:43:06.646Z,26.07
2018-02-22T00:45:34.274Z,27.20
2018-02-22T00:48:01.888Z,24.10
2018-02-22T00:50:30.282Z,25.33
2018-02-22T00:52:58.638Z,24.07
2018-02-22T00:55:26.287Z,23.97
2018-02-22T00:57:53.922Z,25.57
2018-02-22T01:00:21.505Z,24.73
2018-02-22T01:02:49.102Z,25.30
2018-02-22T01:05:17.510Z,24.40
2018-02-22T01:07:45.104Z,26.40
2018-02-22T01:10:12.690Z,26.37
2018-02-22T01:12:40.317Z,24.57
2018-02-22T01:15:07.940Z,25.07
2018-02-22T01:17:35.529Z,24.93
2018-02-22T01:20:03.160Z,27.10
2018-02-22T01:22:30.781Z,26.27
2018-02-22T01:24:58.414Z,26.13
2018-02-22T01:27:26.048Z,24.57
2018-02-22T01:29:53.643Z,25.63
2018-02-22T01:32:21.279Z,26.33
2018-02-22T01:34:49.048Z,26.30
2018-02-22T01:37:16.633Z,25.23
2018-02-22T01:39:44.268Z,28.07
2018-02-22T01:42:11.874Z,27.47
2018-02-22T01:44:39.474Z,25.63
2018-02-22T01:47:07.104Z,26.37
2018-02-22T01:49:34.691Z,27.27
2018-02-22T01:52:02.327Z,27.97
2018-02-22T01:54:29.916Z,27.40
2018-02-22T01:56:57.507Z,26.63
2018-02-22T01:59:25.146Z,27.87
2018-02-22T02:01:52.742Z,28.40
2018-02-22T02:04:20.378Z,27.13
2018-02-22T02:06:47.973Z,27.53
2018-02-22T02:09:15.575Z,27.70
2018-02-22T02:11:43.212Z,27.00
2018-02-22T02:14:10.827Z,28.57
2018-02-22T02:16:38.453Z,29.70
2018-02-22T02:19:06.043Z,27.63
2018-02-22T02:21:33.677Z,29.00
2018-02-22T02:24:02.029Z,29.33
2018-02-22T02:26:29.627Z,29.20
2018-02-22T02:28:57.255Z,30.93
2018-02-22T02:31:24.848Z,31.40
2018-02-22T02:36:25.303Z,29.67
2018-02-22T02:38:52.901Z,28.13
2018-02-22T02:41:20.524Z,28.23
2018-02-22T02:43:48.118Z,30.00
2018-02-22T02:46:15.700Z,29.93
2018-02-22T02:48:43.336Z,29.80
2018-02-22T02:51:10.922Z,27.67
2018-02-22T02:53:38.559Z,30.90
2018-02-22T02:56:06.154Z,30.30
2018-02-22T02:58:33.745Z,29.33
2018-02-22T03:01:02.145Z,28.03
2018-02-22T03:03:29.778Z,29.77
2018-02-22T03:05:57.422Z,31.93
2018-02-22T03:08:25.008Z,35.23
2018-02-22T03:10:52.637Z,32.17
2018-02-22T03:13:20.263Z,32.00
2018-02-22T03:15:47.912Z,29.93
2018-02-22T03:18:15.557Z,31.97
2018-02-22T03:20:43.906Z,30.20
2018-02-22T03:23:11.493Z,29.87
2018-02-22T03:25:39.110Z,31.77
2018-02-22T03:28:06.695Z,31.43
2018-02-22T03:30:34.323Z,32.90
2018-02-22T03:33:01.920Z,34.37
2018-02-22T03:35:29.573Z,36.27
2018-02-22T03:37:57.175Z,33.40
2018-02-22T03:40:24.804Z,31.40
2018-02-22T03:42:52.428Z,32.80
2018-02-22T03:45:20.016Z,33.40
2018-02-22T03:47:47.647Z,36.40
2018-02-22T03:50:15.234Z,32.70
2018-02-22T03:52:42.856Z,33.07
2018-02-22T03:55:10.451Z,33.23
2018-02-22T03:57:38.077Z,32.10
2018-02-22T04:00:05.671Z,30.77
2018-02-22T04:02:33.311Z,33.37
2018-02-22T04:05:00.901Z,30.60
2018-02-22T04:07:28.487Z,30.80
2018-02-22T04:09:56.118Z,31.57
2018-02-22T04:12:23.708Z,31.33
2018-02-22T04:14:51.306Z,33.00
2018-02-22T04:17:18.928Z,33.07
2018-02-22T04:19:46.516Z,31.97
2018-02-22T04:22:17.093Z,34.50
2018-02-22T04:24:44.684Z,32.83
2018-02-22T04:27:12.315Z,33.67
2018-02-22T04:29:39.894Z,33.43
2018-02-22T04:32:07.534Z,31.03
2018-02-22T04:34:35.116Z,35.20
2018-02-22T04:37:02.699Z,32.93
2018-02-22T04:39:30.337Z,34.13
2018-02-22T04:41:57.922Z,32.20
2018-02-22T04:44:25.567Z,32.47
2018-02-22T04:46:53.156Z,31.13
2018-02-22T04:49:20.749Z,31.83
2018-02-22T04:51:48.380Z,31.43
2018-02-22T04:54:15.973Z,31.80
2018-02-22T04:56:43.612Z,33.10
2018-02-22T04:59:11.212Z,32.97
2018-02-22T05:01:38.802Z,30.20
2018-02-22T05:04:06.447Z,32.27
2018-02-22T05:06:34.045Z,31.00
2018-02-22T05:09:01.636Z,32.83
2018-02-22T05:11:29.252Z,33.07
2018-02-22T05:13:56.832Z,36.87
2018-02-22T05:16:25.220Z,35.47
2018-02-22T05:18:53.603Z,35.47
2018-02-22T05:21:21.991Z,36.97
2018-02-22T05:23:49.582Z,40.73
2018-02-22T05:26:17.217Z,39.97
2018-02-22T05:28:44.805Z,38.97
2018-02-22T05:31:12.394Z,39.80
2018-02-22T05:33:40.032Z,40.83
2018-02-22T05:36:07.621Z,41.03
2018-02-22T05:38:35.217Z,42.37
2018-02-22T05:41:02.834Z,39.90
2018-02-22T05:43:30.432Z,38.70
2018-02-22T05:45:58.051Z,38.60
2018-02-22T05:48:25.639Z,41.60
2018-02-22T05:50:53.297Z,41.87
2018-02-22T05:53:20.883Z,43.27
2018-02-22T05:55:48.509Z,41.70
2018-02-22T05:58:16.092Z,44.83
2018-02-22T06:00:43.726Z,41.83
2018-02-22T06:03:11.367Z,39.13
2018-02-22T06:05:38.962Z,35.87
2018-02-22T06:08:06.552Z,39.20
2018-02-22T06:10:34.174Z,37.03
2018-02-22T06:13:01.814Z,36.17
2018-02-22T06:15:29.398Z,35.60
2018-02-22T06:17:57.022Z,38.80
2018-02-22T06:20:24.656Z,38.03
2018-02-22T06:22:53.009Z,37.53
2018-02-22T06:25:20.626Z,39.20
2018-02-22T06:27:48.255Z,36.63
2018-02-22T06:30:16.614Z,37.83
2018-02-22T06:32:44.198Z,38.30
2018-02-22T06:35:11.828Z,41.20
2018-02-22T06:37:39.422Z,40.97
2018-02-22T06:40:07.008Z,40.07
2018-02-22T06:42:34.640Z,39.13
2018-02-22T06:45:02.269Z,41.33
2018-02-22T06:47:29.885Z,40.07
2018-02-22T06:49:57.765Z,39.73
2018-02-22T06:52:25.377Z,40.80
2018-02-22T06:54:53.011Z,42.13
2018-02-22T06:57:20.606Z,39.43
2018-02-22T06:59:48.240Z,41.47
2018-02-22T07:02:15.883Z,40.27
2018-02-22T07:04:43.464Z,40.63
2018-02-22T07:07:11.049Z,41.77
2018-02-22T07:09:38.678Z,41.67
2018-02-22T07:12:06.269Z,41.30
2018-02-22T07:14:33.851Z,42.23
2018-02-22T07:17:01.506Z,42.30
2018-02-22T07:19:29.101Z,41.03
2018-02-22T07:21:56.725Z,42.70
2018-02-22T07:24:24.318Z,40.23
2018-02-22T07:26:51.995Z,40.17
2018-02-22T07:29:19.560Z,37.43
2018-02-22T07:31:47.188Z,39.23
2018-02-22T07:34:14.803Z,39.77
2018-02-22T07:36:42.432Z,39.30
2018-02-22T07:39:10.063Z,38.83
2018-02-22T07:41:38.408Z,39.07
2018-02-22T07:44:06.001Z,36.90
2018-02-22T07:46:33.624Z,38.17
2018-02-22T07:49:03.675Z,38.50
2018-02-22T07:51:31.300Z,37.57
2018-02-22T07:53:58.883Z,37.33
2018-02-22T07:56:26.500Z,35.93
2018-02-22T07:58:54.079Z,37.60
2018-02-22T08:01:22.563Z,39.17
2018-02-22T08:03:50.157Z,37.33
2018-02-22T08:06:17.747Z,38.87
2018-02-22T08:08:45.392Z,37.97
2018-02-22T08:11:13.752Z,35.00
2018-02-22T08:13:42.199Z,37.03
2018-02-22T08:16:09.802Z,38.90
2018-02-22T08:18:37.398Z,36.67
2018-02-22T08:21:05.031Z,36.73
2018-02-22T08:23:32.614Z,36.93
2018-02-22T08:26:00.204Z,36.37
2018-02-22T08:28:27.836Z,34.90
2018-02-22T08:30:55.424Z,36.20
2018-02-22T08:33:23.050Z,35.93
2018-02-22T08:35:51.445Z,35.83
2018-02-22T08:38:19.060Z,34.83
2018-02-22T08:40:46.642Z,33.60
2018-02-22T08:43:15.853Z,35.60
2018-02-22T08:45:43.444Z,35.67
2018-02-22T08:48:11.122Z,34.43
2018-02-22T08:50:38.752Z,33.73
2018-02-22T08:53:06.354Z,34.50
2018-02-22T08:55:33.981Z,33.73
2018-02-22T08:58:01.569Z,34.50
2018-02-22T09:00:29.199Z,32.97
2018-02-22T09:02:56.819Z,31.30
2018-02-22T09:05:24.406Z,32.93
2018-02-22T09:07:52.032Z,31.53
2018-02-22T09:10:19.627Z,29.80
2018-02-22T09:12:47.248Z,31.70
2018-02-22T09:15:15.573Z,30.37
2018-02-22T09:17:43.185Z,32.37
2018-02-22T09:20:10.830Z,28.93
2018-02-22T09:22:38.458Z,30.93
2018-02-22T09:25:06.050Z,30.50
2018-02-22T09:27:33.670Z,30.90
2018-02-22T09:30:01.296Z,30.77
2018-02-22T09:32:28.899Z,29.93
2018-02-22T09:34:56.499Z,30.13
2018-02-22T09:37:24.140Z,30.53
2018-02-22T09:39:51.757Z,29.00
2018-02-22T09:42:19.350Z,30.20
2018-02-22T09:44:46.986Z,28.30
2018-02-22T09:47:14.620Z,28.17
2018-02-22T09:49:42.221Z,29.47
2018-02-22T09:52:10.615Z,27.77
2018-02-22T09:54:38.962Z,27.87
2018-02-22T09:57:06.598Z,28.03
2018-02-22T09:59:34.194Z,26.43
2018-02-22T10:02:01.773Z,26.70
2018-02-22T10:04:29.401Z,27.47
2018-02-22T10:06:56.994Z,26.63
2018-02-22T10:09:25.339Z,27.20
2018-02-22T10:11:52.977Z,24.67
2018-02-22T10:14:20.562Z,22.37
2018-02-22T10:16:48.197Z,22.53
2018-02-22T10:19:15.792Z,23.17
2018-02-22T10:21:43.414Z,23.43
2018-02-22T10:24:11.002Z,23.43
2018-02-22T10:26:38.646Z,22.00
2018-02-22T10:29:06.238Z,24.27
2018-02-22T10:31:33.888Z,24.97
2018-02-22T10:34:01.470Z,24.10
2018-02-22T10:36:29.054Z,23.77
2018-02-22T10:38:56.695Z,24.97
2018-02-22T10:41:24.284Z,25.07
2018-02-22T10:43:51.913Z,24.47
2018-02-22T10:46:19.549Z,24.27
2018-02-22T10:48:47.143Z,25.27
2018-02-22T10:51:14.802Z,22.93
2018-02-22T10:53:42.394Z,25.23
2018-02-22T10:56:09.977Z,22.63
2018-02-22T10:58:38.373Z,23.73
2018-02-22T11:01:13.101Z,24.27
2018-02-22T11:03:44.085Z,24.57
2018-02-22T11:06:12.787Z,22.30
2018-02-22T11:08:41.844Z,25.90
2018-02-22T11:11:11.173Z,23.73
2018-02-22T11:13:42.030Z,23.70
2018-02-22T11:16:09.684Z,22.70
2018-02-22T11:18:38.098Z,22.20
2018-02-22T11:21:06.258Z,21.30
2018-02-22T11:23:38.539Z,17.70
2018-02-22T11:26:06.600Z,17.13
2018-02-22T11:28:34.999Z,15.10
2018-02-22T11:31:02.635Z,15.47
2018-02-22T11:33:30.344Z,16.03
2018-02-22T11:35:57.986Z,16.50
2018-02-22T11:38:25.660Z,17.33
2018-02-22T11:40:53.244Z,15.57
2018-02-22T11:43:20.847Z,17.43
2018-02-22T11:45:48.484Z,14.80
2018-02-22T11:48:17.946Z,15.27
2018-02-22T11:50:45.702Z,16.37
2018-02-22T11:53:13.295Z,15.27
2018-02-22T11:55:40.964Z,15.20
2018-02-22T11:58:08.559Z,15.07
2018-02-22T12:00:36.228Z,16.00
2018-02-22T12:03:03.828Z,15.20
2018-02-22T12:05:31.466Z,14.97
2018-02-22T12:07:59.136Z,15.03
2018-02-22T12:10:26.762Z,15.83
2018-02-22T12:12:54.359Z,15.20
2018-02-22T12:15:22.006Z,15.23
2018-02-22T12:17:49.638Z,14.83
2018-02-22T12:20:18.015Z,14.87
2018-02-22T12:22:46.409Z,16.87
2018-02-22T12:25:14.799Z,13.80
2018-02-22T12:27:42.431Z,14.93
2018-02-22T12:30:10.047Z,14.87
2018-02-22T12:32:37.641Z,15.30
2018-02-22T12:35:07.931Z,14.13
2018-02-22T12:37:39.905Z,16.63
2018-02-22T12:40:11.028Z,14.40
2018-02-22T12:42:41.692Z,14.93
2018-02-22T12:45:11.033Z,15.83
2018-02-22T12:47:40.905Z,15.00
2018-02-22T12:50:14.017Z,15.57
2018-02-22T12:52:45.890Z,14.80
2018-02-22T12:55:16.773Z,14.67
2018-02-22T12:57:48.343Z,13.50
2018-02-22T13:00:18.670Z,14.60
2018-02-22T13:02:48.689Z,13.10
2018-02-22T13:05:21.186Z,13.93
2018-02-22T13:07:55.846Z,13.07
2018-02-22T13:10:26.827Z,12.93
2018-02-22T13:12:57.725Z,13.00
2018-02-22T13:15:25.376Z,12.50
2018-02-22T13:17:53.804Z,13.37
2018-02-22T13:20:21.387Z,11.80
2018-02-22T13:22:48.983Z,13.03
2018-02-22T13:25:16.620Z,12.27
2018-02-22T13:27:44.207Z,11.43
2018-02-22T13:30:12.559Z,11.30
2018-02-22T13:32:51.947Z,11.80
2018-02-22T13:35:19.545Z,12.17
2018-02-22T13:40:47.930Z,10.50
2018-02-22T13:43:15.564Z,12.67
2018-02-22T13:45:43.176Z,12.27
2018-02-22T13:48:11.561Z,13.60
2018-02-22T13:50:52.811Z,12.47
2018-02-22T13:53:21.369Z,12.80
2018-02-22T13:55:48.956Z,13.47
2018-02-22T13:58:16.593Z,11.83
2018-02-22T14:00:56.063Z,11.43
2018-02-22T14:03:23.701Z,11.23
2018-02-22T14:05:51.313Z,12.30
2018-02-22T14:08:30.652Z,11.60
2018-02-22T14:10:58.273Z,12.77
2018-02-22T14:13:25.912Z,11.73
2018-02-22T14:15:53.571Z,12.03
2018-02-22T14:18:21.160Z,12.50
2018-02-22T14:20:48.754Z,13.13
2018-02-22T14:23:16.390Z,12.60
2018-02-22T14:25:43.979Z,13.33
2018-02-22T14:28:11.602Z,12.53
2018-02-22T14:30:39.235Z,15.33
2018-02-22T14:33:06.840Z,15.20
2018-02-22T14:35:34.505Z,15.47
2018-02-22T14:38:02.098Z,15.90
2018-02-22T14:40:29.697Z,17.50
2018-02-22T14:42:57.332Z,16.27
2018-02-22T14:45:25.736Z,18.23
2018-02-22T14:47:53.326Z,17.13
2018-02-22T14:50:20.944Z,16.43
2018-02-22T14:52:49.300Z,17.10
2018-02-22T14:55:16.919Z,16.47
2018-02-22T14:57:44.512Z,17.67
2018-02-22T15:00:12.154Z,17.40
2018-02-22T15:02:39.752Z,17.50
2018-02-22T15:05:08.172Z,17.17
2018-02-22T15:07:35.754Z,17.00
2018-02-22T15:10:03.331Z,17.23
2018-02-22T15:12:30.958Z,17.30
2018-02-22T15:14:58.577Z,17.63
2018-02-22T15:17:26.161Z,18.33
2018-02-22T15:19:53.744Z,17.30
2018-02-22T15:22:21.387Z,18.00
2018-02-22T15:24:48.980Z,17.53
2018-02-22T15:27:16.615Z,17.57
2018-02-22T15:29:44.511Z,17.50
2018-02-22T15:32:12.146Z,17.50
2018-02-22T15:34:41.564Z,17.23
2018-02-22T15:37:10.518Z,19.67
2018-02-22T15:39:38.772Z,18.50
2018-02-22T15:42:07.416Z,32.53
2018-02-22T15:44:35.197Z,20.30
2018-02-22T15:47:06.667Z,19.20
2018-02-22T15:49:34.306Z,19.17
2018-02-22T15:52:01.937Z,18.27
2018-02-22T15:54:30.913Z,19.43
2018-02-22T15:57:02.198Z,19.47
2018-02-22T15:59:29.854Z,20.63
2018-02-22T16:01:57.457Z,20.23
2018-02-22T16:04:25.093Z,19.83
2018-02-22T16:06:52.677Z,21.07
2018-02-22T16:09:20.261Z,20.87
2018-02-22T16:11:47.907Z,20.30
2018-02-22T16:14:15.492Z,20.70
2018-02-22T16:16:43.151Z,20.80
2018-02-22T16:19:11.501Z,20.10
2018-02-22T16:21:39.120Z,22.60
2018-02-22T16:24:06.750Z,21.30
2018-02-22T16:26:34.384Z,21.47
2018-02-22T16:29:01.969Z,22.07
2018-02-22T16:31:29.587Z,21.30
2018-02-22T16:33:57.224Z,21.90
2018-02-22T16:36:24.811Z,20.57
2018-02-22T16:38:52.395Z,22.53
2018-02-22T16:41:20.012Z,20.37
2018-02-22T16:43:47.656Z,22.53
2018-02-22T16:46:16.017Z,21.57
2018-02-22T16:48:43.626Z,21.00
2018-02-22T16:51:11.219Z,22.60
2018-02-22T16:53:38.843Z,21.27
2018-02-22T16:56:06.430Z,22.10
2018-02-22T16:58:34.035Z,23.03
2018-02-22T17:01:01.625Z,22.53
2018-02-22T17:03:29.248Z,22.87
2018-02-22T17:05:56.851Z,23.93
2018-02-22T17:08:24.556Z,24.67
2018-02-22T17:10:52.123Z,23.20
2018-02-22T17:13:19.745Z,24.90
2018-02-22T17:15:47.320Z,24.80
2018-02-22T17:18:14.945Z,24.97
2018-02-22T17:20:42.527Z,24.03
2018-02-22T17:23:10.169Z,25.10
2018-02-22T17:25:37.257Z,24.37
2018-02-22T17:28:10.652Z,25.53
2018-02-22T17:30:43.747Z,25.93
2018-02-22T17:33:11.354Z,24.93
2018-02-22T17:35:42.474Z,26.43
2018-02-22T17:41:12.510Z,27.33
2018-02-22T17:43:40.147Z,26.97
2018-02-22T17:46:07.747Z,25.40
2018-02-22T17:48:35.330Z,26.33
2018-02-22T17:51:02.935Z,27.60
2018-02-22T17:53:30.522Z,26.30
2018-02-22T17:55:58.143Z,28.30
2018-02-22T17:58:25.812Z,26.10
2018-02-22T18:00:56.014Z,25.57
2018-02-22T18:03:23.945Z,25.87
2018-02-22T18:05:51.535Z,27.37
2018-02-22T18:08:19.162Z,25.80
2018-02-22T18:10:46.745Z,26.80
2018-02-22T18:13:15.168Z,24.70
2018-02-22T18:15:43.520Z,25.50
2018-02-22T18:18:11.134Z,26.60
2018-02-22T18:20:41.631Z,26.87
2018-02-22T18:23:09.257Z,24.93
2018-02-22T18:25:37.625Z,25.47
2018-02-22T18:28:06.011Z,28.40
2018-02-22T18:30:34.399Z,26.70
2018-02-22T18:33:02.793Z,25.87
2018-02-22T18:35:30.388Z,25.73
2018-02-22T18:37:59.854Z,27.60
2018-02-22T18:40:33.188Z,27.13
2018-02-22T18:43:00.761Z,28.47
2018-02-22T18:45:28.434Z,28.47
2018-02-22T18:47:55.995Z,27.03
2018-02-22T18:50:23.639Z,30.33
2018-02-22T18:52:51.291Z,28.17
2018-02-22T18:55:19.185Z,29.00
2018-02-22T18:57:46.780Z,29.07
2018-02-22T19:00:14.363Z,29.40
2018-02-22T19:02:41.979Z,28.83
2018-02-22T19:05:09.571Z,30.77
2018-02-22T19:07:37.222Z,29.83
2018-02-22T19:10:04.808Z,28.53
2018-02-22T19:12:32.379Z,29.77
2018-02-22T19:15:00.537Z,29.73
2018-02-22T19:17:28.138Z,31.20
2018-02-22T19:19:55.763Z,29.60
2018-02-22T19:22:23.354Z,29.33
2018-02-22T19:24:50.935Z,29.70
2018-02-22T19:27:18.591Z,31.00
2018-02-22T19:29:46.265Z,31.33
2018-02-22T19:32:14.717Z,30.87
2018-02-22T19:34:42.563Z,30.73
2018-02-22T19:37:10.140Z,31.63
2018-02-22T19:39:37.820Z,31.70
2018-02-22T19:42:05.511Z,31.30
2018-02-22T19:44:33.217Z,30.77
2018-02-22T19:47:00.907Z,32.20
2018-02-22T19:49:28.591Z,34.17
2018-02-22T19:51:56.174Z,34.23
2018-02-22T19:54:24.554Z,34.50
2018-02-22T19:56:52.998Z,33.77
2018-02-22T19:59:20.818Z,33.90
2018-02-22T20:01:48.491Z,34.27
2018-02-22T20:04:16.167Z,34.97
2018-02-22T20:06:43.790Z,36.03
2018-02-22T20:09:11.379Z,33.20
2018-02-22T20:11:39.072Z,36.50
2018-02-22T20:14:06.803Z,38.60
2018-02-22T20:16:34.506Z,36.00
2018-02-22T20:19:02.093Z,37.17
2018-02-22T20:21:29.761Z,36.23
2018-02-22T20:23:57.985Z,37.33
2018-02-22T20:26:25.570Z,38.40
2018-02-22T20:28:53.204Z,36.50
2018-02-22T20:31:20.797Z,38.37
2018-02-22T20:33:48.399Z,34.87
2018-02-22T20:36:16.070Z,36.17
2018-02-22T20:38:43.715Z,37.23
2018-02-22T20:41:11.313Z,36.57
2018-02-22T20:43:38.935Z,35.90
2018-02-22T20:46:07.430Z,39.17
2018-02-22T20:48:35.095Z,37.30
2018-02-22T20:51:19.340Z,39.30
2018-02-22T20:53:46.960Z,36.70
2018-02-22T20:56:14.547Z,41.50
2018-02-22T20:58:43.080Z,36.73
2018-02-22T21:01:11.724Z,39.93
2018-02-22T21:03:42.068Z,38.13
2018-02-22T21:06:09.653Z,38.20
2018-02-22T21:08:37.240Z,37.97
2018-02-22T21:11:04.895Z,38.80
2018-02-22T21:13:34.455Z,37.93
2018-02-22T21:16:02.345Z,37.03
2018-02-22T21:18:30.233Z,35.30
2018-02-22T21:20:57.868Z,37.47
2018-02-22T21:23:25.455Z,37.73
2018-02-22T21:25:53.071Z,39.77
2018-02-22T21:28:20.769Z,39.13
2018-02-22T21:30:48.384Z,38.77
2018-02-22T21:33:16.019Z,40.13
2018-02-22T21:35:43.787Z,42.23
2018-02-22T21:38:11.614Z,39.30
2018-02-22T21:40:39.371Z,40.87
2018-02-22T21:43:07.094Z,40.47
2018-02-22T21:45:34.750Z,39.73
2018-02-22T21:48:02.388Z,41.10
2018-02-22T21:50:29.969Z,41.70
2018-02-22T21:52:57.599Z,40.13
2018-02-22T21:55:25.194Z,42.03
2018-02-22T21:57:53.011Z,41.67
2018-02-22T22:00:20.620Z,41.20
2018-02-22T22:02:48.248Z,39.03
2018-02-22T22:05:15.844Z,39.00
2018-02-22T22:07:43.466Z,38.17
2018-02-22T22:10:11.047Z,38.17
2018-02-22T22:12:38.682Z,39.53
2018-02-22T22:15:06.271Z,37.40
2018-02-22T22:17:33.918Z,40.57
2018-02-22T22:20:01.653Z,39.07
2018-02-22T22:22:29.261Z,39.00
2018-02-22T22:24:59.775Z,37.93
2018-02-22T22:27:27.377Z,40.53
2018-02-22T22:29:56.590Z,37.73
2018-02-22T22:32:24.208Z,37.67
2018-02-22T22:34:51.825Z,39.97
2018-02-22T22:37:19.436Z,39.23
2018-02-22T22:39:47.062Z,36.07
2018-02-22T22:42:14.686Z,37.93
2018-02-22T22:44:44.269Z,38.57
2018-02-22T22:47:11.890Z,35.47
2018-02-22T22:49:39.851Z,38.90
2018-02-22T22:52:07.677Z,38.07
2018-02-22T22:54:35.403Z,38.87
2018-02-22T22:57:03.064Z,41.73
2018-02-22T22:59:30.708Z,37.47
2018-02-22T23:01:58.301Z,38.43
2018-02-22T23:04:25.937Z,39.63
2018-02-22T23:06:53.773Z,40.27
2018-02-22T23:09:21.395Z,42.53
2018-02-22T23:11:49.031Z,41.43
2018-02-22T23:14:16.685Z,41.13
2018-02-22T23:16:44.344Z,39.97
2018-02-22T23:19:11.939Z,40.93
2018-02-22T23:21:40.059Z,42.57
2018-02-22T23:24:09.731Z,40.40
2018-02-22T23:26:38.210Z,41.97
2018-02-22T23:29:05.915Z,41.57
2018-02-22T23:31:34.464Z,39.27
2018-02-22T23:34:03.079Z,41.57
2018-02-22T23:36:32.286Z,40.43
2018-02-22T23:39:00.689Z,43.40
2018-02-22T23:41:33.884Z,45.77
2018-02-22T23:44:01.540Z,37.40
2018-02-22T23:46:29.788Z,39.50
2018-02-22T23:48:58.146Z,39.00
2018-02-22T23:51:26.216Z,38.80
2018-02-22T23:53:55.299Z,42.17
2018-02-22T23:56:22.985Z,39.30
2018-02-22T23:58:50.618Z,39.47
